sensor_id;sensor_type;location;lat;lon;timestamp;temperature;humidity
41290;DHT22;36117;46.680;11.154;2022-08-19T00:00:35;24.10;93.80
41290;DHT22;36117;46.680;11.154;2022-08-19T00:03:01;23.90;93.10
41290;DHT22;36117;46.680;11.154;2022-08-19T00:05:27;23.80;93.80
41290;DHT22;36117;46.680;11.154;2022-08-19T00:07:53;24.10;93.30
41290;DHT22;36117;46.680;11.154;2022-08-19T00:10:19;23.90;93.70
41290;DHT22;36117;46.680;11.154;2022-08-19T00:12:45;23.60;94.60
41290;DHT22;36117;46.680;11.154;2022-08-19T00:15:15;23.30;95.20
41290;DHT22;36117;46.680;11.154;2022-08-19T00:17:44;23.40;95.40
41290;DHT22;36117;46.680;11.154;2022-08-19T00:20:14;23.20;96.30
41290;DHT22;36117;46.680;11.154;2022-08-19T00:22:42;22.50;95.20
41290;DHT22;36117;46.680;11.154;2022-08-19T00:25:08;22.40;96.30
41290;DHT22;36117;46.680;11.154;2022-08-19T00:27:34;22.00;96.90
41290;DHT22;36117;46.680;11.154;2022-08-19T00:30:00;21.70;97.10
41290;DHT22;36117;46.680;11.154;2022-08-19T00:32:28;22.00;97.50
41290;DHT22;36117;46.680;11.154;2022-08-19T00:34:54;22.10;97.40
41290;DHT22;36117;46.680;11.154;2022-08-19T00:37:22;22.20;97.30
41290;DHT22;36117;46.680;11.154;2022-08-19T00:39:49;22.30;96.60
41290;DHT22;36117;46.680;11.154;2022-08-19T00:42:18;22.20;97.60
41290;DHT22;36117;46.680;11.154;2022-08-19T00:44:44;22.10;98.60
41290;DHT22;36117;46.680;11.154;2022-08-19T00:47:10;22.30;99.00
41290;DHT22;36117;46.680;11.154;2022-08-19T00:49:41;22.60;98.50
41290;DHT22;36117;46.680;11.154;2022-08-19T00:52:27;22.70;98.00
41290;DHT22;36117;46.680;11.154;2022-08-19T00:54:54;22.70;98.10
41290;DHT22;36117;46.680;11.154;2022-08-19T00:57:33;22.90;97.40
41290;DHT22;36117;46.680;11.154;2022-08-19T01:00:00;22.90;97.40
41290;DHT22;36117;46.680;11.154;2022-08-19T01:02:28;23.30;96.40
41290;DHT22;36117;46.680;11.154;2022-08-19T01:04:54;23.40;96.20
41290;DHT22;36117;46.680;11.154;2022-08-19T01:07:20;23.30;95.90
41290;DHT22;36117;46.680;11.154;2022-08-19T01:09:46;22.80;96.70
41290;DHT22;36117;46.680;11.154;2022-08-19T01:12:13;22.70;96.60
41290;DHT22;36117;46.680;11.154;2022-08-19T01:14:39;22.70;96.60
41290;DHT22;36117;46.680;11.154;2022-08-19T01:17:09;22.60;96.80
41290;DHT22;36117;46.680;11.154;2022-08-19T01:19:39;22.40;97.20
41290;DHT22;36117;46.680;11.154;2022-08-19T01:22:27;22.50;96.60
41290;DHT22;36117;46.680;11.154;2022-08-19T01:24:53;22.50;96.80
41290;DHT22;36117;46.680;11.154;2022-08-19T01:27:19;22.60;96.50
41290;DHT22;36117;46.680;11.154;2022-08-19T01:29:45;22.50;96.30
41290;DHT22;36117;46.680;11.154;2022-08-19T01:32:16;22.60;97.00
41290;DHT22;36117;46.680;11.154;2022-08-19T01:34:45;22.30;98.30
41290;DHT22;36117;46.680;11.154;2022-08-19T01:37:14;22.00;99.50
41290;DHT22;36117;46.680;11.154;2022-08-19T01:39:41;22.00;99.90
41290;DHT22;36117;46.680;11.154;2022-08-19T01:42:08;22.30;99.30
41290;DHT22;36117;46.680;11.154;2022-08-19T01:44:39;22.40;98.80
41290;DHT22;36117;46.680;11.154;2022-08-19T01:47:07;22.20;98.80
41290;DHT22;36117;46.680;11.154;2022-08-19T01:49:34;21.90;99.30
41290;DHT22;36117;46.680;11.154;2022-08-19T01:52:00;22.20;99.10
41290;DHT22;36117;46.680;11.154;2022-08-19T01:54:27;22.60;98.30
41290;DHT22;36117;46.680;11.154;2022-08-19T01:56:58;22.70;97.80
41290;DHT22;36117;46.680;11.154;2022-08-19T01:59:25;22.60;97.50
41290;DHT22;36117;46.680;11.154;2022-08-19T02:01:51;22.30;98.20
41290;DHT22;36117;46.680;11.154;2022-08-19T02:04:17;22.70;97.70
41290;DHT22;36117;46.680;11.154;2022-08-19T02:06:43;22.90;97.30
41290;DHT22;36117;46.680;11.154;2022-08-19T02:09:09;22.90;97.20
41290;DHT22;36117;46.680;11.154;2022-08-19T02:11:36;23.10;96.90
41290;DHT22;36117;46.680;11.154;2022-08-19T02:14:06;23.10;96.70
41290;DHT22;36117;46.680;11.154;2022-08-19T02:16:33;22.90;97.00
41290;DHT22;36117;46.680;11.154;2022-08-19T02:18:58;22.00;98.80
41290;DHT22;36117;46.680;11.154;2022-08-19T02:21:28;22.20;99.30
41290;DHT22;36117;46.680;11.154;2022-08-19T02:23:55;22.20;99.90
41290;DHT22;36117;46.680;11.154;2022-08-19T02:26:21;21.90;99.90
41290;DHT22;36117;46.680;11.154;2022-08-19T02:28:48;22.00;99.90
41290;DHT22;36117;46.680;11.154;2022-08-19T02:31:33;22.00;99.90
41290;DHT22;36117;46.680;11.154;2022-08-19T02:33:59;22.40;99.50
41290;DHT22;36117;46.680;11.154;2022-08-19T02:36:26;22.80;98.60
41290;DHT22;36117;46.680;11.154;2022-08-19T02:38:52;22.80;98.40
41290;DHT22;36117;46.680;11.154;2022-08-19T02:41:21;22.80;98.40
41290;DHT22;36117;46.680;11.154;2022-08-19T02:43:48;22.70;98.20
41290;DHT22;36117;46.680;11.154;2022-08-19T02:46:19;23.10;97.50
41290;DHT22;36117;46.680;11.154;2022-08-19T02:48:50;23.10;97.10
41290;DHT22;36117;46.680;11.154;2022-08-19T02:51:21;23.00;96.90
41290;DHT22;36117;46.680;11.154;2022-08-19T02:53:48;22.80;96.80
41290;DHT22;36117;46.680;11.154;2022-08-19T02:56:14;22.70;96.70
41290;DHT22;36117;46.680;11.154;2022-08-19T02:58:41;22.60;96.80
41290;DHT22;36117;46.680;11.154;2022-08-19T03:01:09;22.50;97.10
41290;DHT22;36117;46.680;11.154;2022-08-19T03:03:36;22.40;97.20
41290;DHT22;36117;46.680;11.154;2022-08-19T03:06:11;22.20;97.80
41290;DHT22;36117;46.680;11.154;2022-08-19T03:08:39;21.60;99.10
41290;DHT22;36117;46.680;11.154;2022-08-19T03:11:06;21.60;99.50
41290;DHT22;36117;46.680;11.154;2022-08-19T03:13:32;21.80;99.10
41290;DHT22;36117;46.680;11.154;2022-08-19T03:15:58;22.10;98.20
41290;DHT22;36117;46.680;11.154;2022-08-19T03:18:24;22.10;97.50
41290;DHT22;36117;46.680;11.154;2022-08-19T03:20:51;22.40;96.80
41290;DHT22;36117;46.680;11.154;2022-08-19T03:23:22;22.30;96.60
41290;DHT22;36117;46.680;11.154;2022-08-19T03:25:50;22.10;96.30
41290;DHT22;36117;46.680;11.154;2022-08-19T03:28:16;22.50;95.10
41290;DHT22;36117;46.680;11.154;2022-08-19T03:30:58;22.70;94.60
41290;DHT22;36117;46.680;11.154;2022-08-19T03:33:24;22.40;95.10
41290;DHT22;36117;46.680;11.154;2022-08-19T03:36:21;22.50;95.00
41290;DHT22;36117;46.680;11.154;2022-08-19T03:38:55;22.40;95.50
41290;DHT22;36117;46.680;11.154;2022-08-19T03:41:24;22.30;95.70
41290;DHT22;36117;46.680;11.154;2022-08-19T03:43:51;22.20;96.30
41290;DHT22;36117;46.680;11.154;2022-08-19T03:46:20;22.30;96.20
41290;DHT22;36117;46.680;11.154;2022-08-19T03:48:47;22.20;96.60
41290;DHT22;36117;46.680;11.154;2022-08-19T03:51:19;22.40;96.60
41290;DHT22;36117;46.680;11.154;2022-08-19T03:53:46;22.50;96.50
41290;DHT22;36117;46.680;11.154;2022-08-19T03:56:13;22.70;95.80
41290;DHT22;36117;46.680;11.154;2022-08-19T03:58:40;22.80;95.70
41290;DHT22;36117;46.680;11.154;2022-08-19T04:01:15;22.80;95.50
41290;DHT22;36117;46.680;11.154;2022-08-19T04:03:41;22.20;96.40
41290;DHT22;36117;46.680;11.154;2022-08-19T04:06:11;22.50;96.40
41290;DHT22;36117;46.680;11.154;2022-08-19T04:08:39;22.50;95.80
41290;DHT22;36117;46.680;11.154;2022-08-19T04:11:10;22.50;95.80
41290;DHT22;36117;46.680;11.154;2022-08-19T04:13:37;22.40;95.90
41290;DHT22;36117;46.680;11.154;2022-08-19T04:16:11;22.60;95.30
41290;DHT22;36117;46.680;11.154;2022-08-19T04:18:38;22.60;94.50
41290;DHT22;36117;46.680;11.154;2022-08-19T04:21:05;22.70;94.00
41290;DHT22;36117;46.680;11.154;2022-08-19T04:23:32;22.50;94.40
41290;DHT22;36117;46.680;11.154;2022-08-19T04:25:58;22.50;94.20
41290;DHT22;36117;46.680;11.154;2022-08-19T04:28:25;22.60;93.80
41290;DHT22;36117;46.680;11.154;2022-08-19T04:30:52;22.40;93.70
41290;DHT22;36117;46.680;11.154;2022-08-19T04:33:22;22.10;94.40
41290;DHT22;36117;46.680;11.154;2022-08-19T04:35:51;22.00;95.50
41290;DHT22;36117;46.680;11.154;2022-08-19T04:38:19;21.80;95.60
41290;DHT22;36117;46.680;11.154;2022-08-19T04:40:47;22.20;95.60
41290;DHT22;36117;46.680;11.154;2022-08-19T04:43:33;22.40;95.40
41290;DHT22;36117;46.680;11.154;2022-08-19T04:46:10;22.60;95.20
41290;DHT22;36117;46.680;11.154;2022-08-19T04:48:38;23.00;94.00
41290;DHT22;36117;46.680;11.154;2022-08-19T04:51:07;22.60;94.50
41290;DHT22;36117;46.680;11.154;2022-08-19T04:53:36;22.40;94.80
41290;DHT22;36117;46.680;11.154;2022-08-19T04:56:11;22.30;95.20
41290;DHT22;36117;46.680;11.154;2022-08-19T04:58:39;22.10;95.90
41290;DHT22;36117;46.680;11.154;2022-08-19T05:01:08;21.60;97.00
41290;DHT22;36117;46.680;11.154;2022-08-19T05:03:33;21.30;98.30
41290;DHT22;36117;46.680;11.154;2022-08-19T05:06:05;21.40;98.50
41290;DHT22;36117;46.680;11.154;2022-08-19T05:08:32;21.90;98.10
41290;DHT22;36117;46.680;11.154;2022-08-19T05:10:59;22.20;97.00
41290;DHT22;36117;46.680;11.154;2022-08-19T05:13:28;22.60;96.00
41290;DHT22;36117;46.680;11.154;2022-08-19T05:15:58;22.50;95.60
41290;DHT22;36117;46.680;11.154;2022-08-19T05:18:24;22.40;95.90
41290;DHT22;36117;46.680;11.154;2022-08-19T05:21:11;22.60;95.90
41290;DHT22;36117;46.680;11.154;2022-08-19T05:23:57;23.00;94.70
41290;DHT22;36117;46.680;11.154;2022-08-19T05:26:24;22.90;94.60
41290;DHT22;36117;46.680;11.154;2022-08-19T05:28:54;22.90;94.30
41290;DHT22;36117;46.680;11.154;2022-08-19T05:31:21;22.80;94.80
41290;DHT22;36117;46.680;11.154;2022-08-19T05:33:47;22.40;95.60
41290;DHT22;36117;46.680;11.154;2022-08-19T05:36:13;22.10;96.30
41290;DHT22;36117;46.680;11.154;2022-08-19T05:38:39;22.00;96.50
41290;DHT22;36117;46.680;11.154;2022-08-19T05:41:13;22.50;96.20
41290;DHT22;36117;46.680;11.154;2022-08-19T05:43:40;22.90;95.50
41290;DHT22;36117;46.680;11.154;2022-08-19T05:46:07;23.30;94.40
41290;DHT22;36117;46.680;11.154;2022-08-19T05:48:34;23.00;94.30
41290;DHT22;36117;46.680;11.154;2022-08-19T05:51:04;22.50;94.50
41290;DHT22;36117;46.680;11.154;2022-08-19T05:53:32;22.40;95.10
41290;DHT22;36117;46.680;11.154;2022-08-19T05:56:04;22.30;95.60
41290;DHT22;36117;46.680;11.154;2022-08-19T05:58:30;22.50;95.50
41290;DHT22;36117;46.680;11.154;2022-08-19T06:01:01;22.80;95.20
41290;DHT22;36117;46.680;11.154;2022-08-19T06:03:34;22.80;94.80
41290;DHT22;36117;46.680;11.154;2022-08-19T06:06:00;23.20;94.70
41290;DHT22;36117;46.680;11.154;2022-08-19T06:08:26;23.40;93.60
41290;DHT22;36117;46.680;11.154;2022-08-19T06:10:53;23.50;93.30
41290;DHT22;36117;46.680;11.154;2022-08-19T06:13:19;24.10;92.40
41290;DHT22;36117;46.680;11.154;2022-08-19T06:15:46;24.40;91.60
41290;DHT22;36117;46.680;11.154;2022-08-19T06:18:13;24.30;91.40
41290;DHT22;36117;46.680;11.154;2022-08-19T06:20:40;24.00;91.70
41290;DHT22;36117;46.680;11.154;2022-08-19T06:23:05;23.90;92.30
41290;DHT22;36117;46.680;11.154;2022-08-19T06:25:32;23.80;92.50
41290;DHT22;36117;46.680;11.154;2022-08-19T06:27:57;23.90;92.30
41290;DHT22;36117;46.680;11.154;2022-08-19T06:30:24;24.40;91.70
41290;DHT22;36117;46.680;11.154;2022-08-19T06:32:49;24.00;91.70
41290;DHT22;36117;46.680;11.154;2022-08-19T06:35:16;24.50;91.50
41290;DHT22;36117;46.680;11.154;2022-08-19T06:37:42;24.80;90.90
41290;DHT22;36117;46.680;11.154;2022-08-19T06:40:08;25.00;90.20
41290;DHT22;36117;46.680;11.154;2022-08-19T06:42:36;25.30;88.70
41290;DHT22;36117;46.680;11.154;2022-08-19T06:45:05;25.60;87.00
41290;DHT22;36117;46.680;11.154;2022-08-19T06:47:31;25.70;86.80
41290;DHT22;36117;46.680;11.154;2022-08-19T06:50:00;26.90;84.70
41290;DHT22;36117;46.680;11.154;2022-08-19T06:52:30;27.80;80.00
41290;DHT22;36117;46.680;11.154;2022-08-19T06:54:55;29.10;74.80
41290;DHT22;36117;46.680;11.154;2022-08-19T06:57:24;29.80;71.20
41290;DHT22;36117;46.680;11.154;2022-08-19T06:59:50;30.70;68.10
41290;DHT22;36117;46.680;11.154;2022-08-19T07:02:16;30.20;67.40
41290;DHT22;36117;46.680;11.154;2022-08-19T07:04:42;30.80;66.70
41290;DHT22;36117;46.680;11.154;2022-08-19T07:07:10;30.90;64.60
41290;DHT22;36117;46.680;11.154;2022-08-19T07:09:39;31.50;63.10
41290;DHT22;36117;46.680;11.154;2022-08-19T07:12:07;32.20;59.90
41290;DHT22;36117;46.680;11.154;2022-08-19T07:14:34;31.40;60.50
41290;DHT22;36117;46.680;11.154;2022-08-19T07:17:05;32.10;59.10
41290;DHT22;36117;46.680;11.154;2022-08-19T07:19:31;32.30;56.70
41290;DHT22;36117;46.680;11.154;2022-08-19T07:21:57;32.20;54.60
41290;DHT22;36117;46.680;11.154;2022-08-19T07:24:27;32.20;56.50
41290;DHT22;36117;46.680;11.154;2022-08-19T07:26:55;32.70;54.80
41290;DHT22;36117;46.680;11.154;2022-08-19T07:29:22;32.10;55.90
41290;DHT22;36117;46.680;11.154;2022-08-19T07:31:50;33.10;55.00
41290;DHT22;36117;46.680;11.154;2022-08-19T07:34:17;32.60;54.50
41290;DHT22;36117;46.680;11.154;2022-08-19T07:36:44;33.10;54.20
41290;DHT22;36117;46.680;11.154;2022-08-19T07:39:25;32.50;54.70
41290;DHT22;36117;46.680;11.154;2022-08-19T07:41:52;31.80;56.10
41290;DHT22;36117;46.680;11.154;2022-08-19T07:44:19;32.10;56.10
41290;DHT22;36117;46.680;11.154;2022-08-19T07:46:48;31.50;56.10
41290;DHT22;36117;46.680;11.154;2022-08-19T07:49:15;28.80;61.30
41290;DHT22;36117;46.680;11.154;2022-08-19T07:52:00;27.70;66.30
41290;DHT22;36117;46.680;11.154;2022-08-19T07:54:28;27.90;67.60
41290;DHT22;36117;46.680;11.154;2022-08-19T07:56:54;28.50;66.30
41290;DHT22;36117;46.680;11.154;2022-08-19T07:59:21;29.90;61.40
41290;DHT22;36117;46.680;11.154;2022-08-19T08:01:47;31.10;57.30
41290;DHT22;36117;46.680;11.154;2022-08-19T08:04:14;32.80;55.50
41290;DHT22;36117;46.680;11.154;2022-08-19T08:06:58;34.00;52.00
41290;DHT22;36117;46.680;11.154;2022-08-19T08:09:44;35.00;48.70
41290;DHT22;36117;46.680;11.154;2022-08-19T08:12:18;35.90;48.20
41290;DHT22;36117;46.680;11.154;2022-08-19T08:14:48;36.60;46.10
41290;DHT22;36117;46.680;11.154;2022-08-19T08:17:19;37.90;43.90
41290;DHT22;36117;46.680;11.154;2022-08-19T08:19:46;38.40;42.50
41290;DHT22;36117;46.680;11.154;2022-08-19T08:22:15;37.40;43.00
41290;DHT22;36117;46.680;11.154;2022-08-19T08:25:07;37.90;43.30
41290;DHT22;36117;46.680;11.154;2022-08-19T08:27:40;38.10;42.20
41290;DHT22;36117;46.680;11.154;2022-08-19T08:30:18;36.40;42.00
41290;DHT22;36117;46.680;11.154;2022-08-19T08:32:45;35.80;44.40
41290;DHT22;36117;46.680;11.154;2022-08-19T08:35:15;36.50;42.30
41290;DHT22;36117;46.680;11.154;2022-08-19T08:37:43;34.90;46.50
41290;DHT22;36117;46.680;11.154;2022-08-19T08:40:30;35.50;44.50
41290;DHT22;36117;46.680;11.154;2022-08-19T08:43:07;38.00;43.10
41290;DHT22;36117;46.680;11.154;2022-08-19T08:45:38;39.50;40.40
41290;DHT22;36117;46.680;11.154;2022-08-19T08:48:20;40.50;38.60
41290;DHT22;36117;46.680;11.154;2022-08-19T08:50:48;41.10;37.60
41290;DHT22;36117;46.680;11.154;2022-08-19T08:53:19;39.70;38.40
41290;DHT22;36117;46.680;11.154;2022-08-19T08:55:46;39.80;38.30
41290;DHT22;36117;46.680;11.154;2022-08-19T09:01:14;36.90;41.00
41290;DHT22;36117;46.680;11.154;2022-08-19T09:03:41;35.60;42.30
41290;DHT22;36117;46.680;11.154;2022-08-19T09:06:13;36.70;42.00
41290;DHT22;36117;46.680;11.154;2022-08-19T09:09:04;36.50;42.60
41290;DHT22;36117;46.680;11.154;2022-08-19T09:11:41;36.40;42.50
41290;DHT22;36117;46.680;11.154;2022-08-19T09:14:15;36.50;43.00
41290;DHT22;36117;46.680;11.154;2022-08-19T09:16:44;36.80;40.70
41290;DHT22;36117;46.680;11.154;2022-08-19T09:19:10;36.70;41.30
41290;DHT22;36117;46.680;11.154;2022-08-19T09:21:36;34.70;43.50
41290;DHT22;36117;46.680;11.154;2022-08-19T09:24:04;34.10;45.50
41290;DHT22;36117;46.680;11.154;2022-08-19T09:26:31;32.50;47.40
41290;DHT22;36117;46.680;11.154;2022-08-19T09:28:58;32.00;49.20
41290;DHT22;36117;46.680;11.154;2022-08-19T09:31:31;31.20;50.60
41290;DHT22;36117;46.680;11.154;2022-08-19T09:33:58;30.20;52.60
41290;DHT22;36117;46.680;11.154;2022-08-19T09:36:27;30.20;54.00
41290;DHT22;36117;46.680;11.154;2022-08-19T09:38:55;29.40;55.80
41290;DHT22;36117;46.680;11.154;2022-08-19T09:41:23;29.30;56.10
41290;DHT22;36117;46.680;11.154;2022-08-19T09:43:51;29.50;56.20
41290;DHT22;36117;46.680;11.154;2022-08-19T09:46:18;30.00;55.00
41290;DHT22;36117;46.680;11.154;2022-08-19T09:48:49;29.60;56.10
41290;DHT22;36117;46.680;11.154;2022-08-19T09:51:22;30.10;54.80
41290;DHT22;36117;46.680;11.154;2022-08-19T09:53:49;31.00;53.60
41290;DHT22;36117;46.680;11.154;2022-08-19T09:56:20;31.10;54.30
41290;DHT22;36117;46.680;11.154;2022-08-19T09:58:46;31.50;52.50
41290;DHT22;36117;46.680;11.154;2022-08-19T10:01:31;32.20;51.20
41290;DHT22;36117;46.680;11.154;2022-08-19T10:03:59;33.70;48.30
41290;DHT22;36117;46.680;11.154;2022-08-19T10:06:27;33.30;48.00
41290;DHT22;36117;46.680;11.154;2022-08-19T10:08:56;34.10;46.60
41290;DHT22;36117;46.680;11.154;2022-08-19T10:11:22;34.30;46.80
41290;DHT22;36117;46.680;11.154;2022-08-19T10:13:48;34.90;46.80
41290;DHT22;36117;46.680;11.154;2022-08-19T10:16:17;36.70;43.50
41290;DHT22;36117;46.680;11.154;2022-08-19T10:18:45;37.70;41.40
41290;DHT22;36117;46.680;11.154;2022-08-19T10:21:16;37.00;40.90
41290;DHT22;36117;46.680;11.154;2022-08-19T10:23:44;37.50;41.10
41290;DHT22;36117;46.680;11.154;2022-08-19T10:26:12;38.00;40.70
41290;DHT22;36117;46.680;11.154;2022-08-19T10:28:38;37.70;40.40
41290;DHT22;36117;46.680;11.154;2022-08-19T10:31:16;37.10;41.10
41290;DHT22;36117;46.680;11.154;2022-08-19T10:33:43;37.50;41.20
41290;DHT22;36117;46.680;11.154;2022-08-19T10:36:12;37.30;41.80
41290;DHT22;36117;46.680;11.154;2022-08-19T10:38:40;37.40;40.60
41290;DHT22;36117;46.680;11.154;2022-08-19T10:41:15;37.50;40.10
41290;DHT22;36117;46.680;11.154;2022-08-19T10:43:42;37.10;40.80
41290;DHT22;36117;46.680;11.154;2022-08-19T10:46:12;36.20;42.10
41290;DHT22;36117;46.680;11.154;2022-08-19T10:48:38;36.10;42.80
41290;DHT22;36117;46.680;11.154;2022-08-19T10:51:04;35.70;42.40
41290;DHT22;36117;46.680;11.154;2022-08-19T10:53:50;35.50;42.60
41290;DHT22;36117;46.680;11.154;2022-08-19T10:56:16;34.90;44.30
41290;DHT22;36117;46.680;11.154;2022-08-19T10:59:01;34.90;44.20
41290;DHT22;36117;46.680;11.154;2022-08-19T11:01:30;34.40;45.00
41290;DHT22;36117;46.680;11.154;2022-08-19T11:03:56;34.80;44.80
41290;DHT22;36117;46.680;11.154;2022-08-19T11:06:25;35.20;44.20
41290;DHT22;36117;46.680;11.154;2022-08-19T11:08:52;34.80;45.10
41290;DHT22;36117;46.680;11.154;2022-08-19T11:11:18;34.90;45.10
41290;DHT22;36117;46.680;11.154;2022-08-19T11:13:45;34.10;46.20
41290;DHT22;36117;46.680;11.154;2022-08-19T11:16:20;34.50;45.50
41290;DHT22;36117;46.680;11.154;2022-08-19T11:18:49;34.20;45.90
41290;DHT22;36117;46.680;11.154;2022-08-19T11:21:20;34.20;45.50
41290;DHT22;36117;46.680;11.154;2022-08-19T11:23:53;35.20;44.10
41290;DHT22;36117;46.680;11.154;2022-08-19T11:26:21;35.00;43.40
41290;DHT22;36117;46.680;11.154;2022-08-19T11:28:47;35.20;42.90
41290;DHT22;36117;46.680;11.154;2022-08-19T11:31:16;35.00;43.40
41290;DHT22;36117;46.680;11.154;2022-08-19T11:33:42;35.50;42.80
41290;DHT22;36117;46.680;11.154;2022-08-19T11:36:08;35.50;42.30
41290;DHT22;36117;46.680;11.154;2022-08-19T11:38:35;35.60;42.50
41290;DHT22;36117;46.680;11.154;2022-08-19T11:41:04;35.40;43.30
41290;DHT22;36117;46.680;11.154;2022-08-19T11:43:30;34.50;44.60
41290;DHT22;36117;46.680;11.154;2022-08-19T11:45:56;33.20;46.70
41290;DHT22;36117;46.680;11.154;2022-08-19T11:48:23;32.60;49.50
41290;DHT22;36117;46.680;11.154;2022-08-19T11:50:50;32.20;50.30
41290;DHT22;36117;46.680;11.154;2022-08-19T11:53:19;31.40;51.60
41290;DHT22;36117;46.680;11.154;2022-08-19T11:55:49;30.70;53.30
41290;DHT22;36117;46.680;11.154;2022-08-19T11:58:17;30.60;54.10
41290;DHT22;36117;46.680;11.154;2022-08-19T12:00:43;30.40;54.40
41290;DHT22;36117;46.680;11.154;2022-08-19T12:03:11;30.10;55.40
41290;DHT22;36117;46.680;11.154;2022-08-19T12:05:38;30.20;56.20
41290;DHT22;36117;46.680;11.154;2022-08-19T12:08:04;29.50;58.20
41290;DHT22;36117;46.680;11.154;2022-08-19T12:10:30;29.40;58.90
41290;DHT22;36117;46.680;11.154;2022-08-19T12:12:56;29.40;59.60
41290;DHT22;36117;46.680;11.154;2022-08-19T12:15:22;29.30;60.20
41290;DHT22;36117;46.680;11.154;2022-08-19T12:17:48;30.00;58.80
41290;DHT22;36117;46.680;11.154;2022-08-19T12:20:14;29.60;59.40
41290;DHT22;36117;46.680;11.154;2022-08-19T12:22:42;29.50;59.70
41290;DHT22;36117;46.680;11.154;2022-08-19T12:25:12;29.50;58.90
41290;DHT22;36117;46.680;11.154;2022-08-19T12:27:38;29.70;59.50
41290;DHT22;36117;46.680;11.154;2022-08-19T12:30:06;30.40;58.10
41290;DHT22;36117;46.680;11.154;2022-08-19T12:32:33;30.80;57.20
41290;DHT22;36117;46.680;11.154;2022-08-19T12:34:59;31.40;56.10
41290;DHT22;36117;46.680;11.154;2022-08-19T12:37:25;32.00;53.00
41290;DHT22;36117;46.680;11.154;2022-08-19T12:39:50;31.90;52.90
41290;DHT22;36117;46.680;11.154;2022-08-19T12:42:16;31.50;53.50
41290;DHT22;36117;46.680;11.154;2022-08-19T12:44:44;31.40;53.90
41290;DHT22;36117;46.680;11.154;2022-08-19T12:47:11;31.50;54.20
41290;DHT22;36117;46.680;11.154;2022-08-19T12:49:40;32.10;54.10
41290;DHT22;36117;46.680;11.154;2022-08-19T12:52:07;32.90;52.30
41290;DHT22;36117;46.680;11.154;2022-08-19T12:54:35;33.00;50.70
41290;DHT22;36117;46.680;11.154;2022-08-19T12:57:05;32.30;51.70
41290;DHT22;36117;46.680;11.154;2022-08-19T12:59:32;32.10;51.70
41290;DHT22;36117;46.680;11.154;2022-08-19T13:01:59;32.80;51.40
41290;DHT22;36117;46.680;11.154;2022-08-19T13:04:24;32.70;49.80
41290;DHT22;36117;46.680;11.154;2022-08-19T13:06:50;33.00;50.00
41290;DHT22;36117;46.680;11.154;2022-08-19T13:09:16;32.80;50.00
41290;DHT22;36117;46.680;11.154;2022-08-19T13:11:42;32.90;49.80
41290;DHT22;36117;46.680;11.154;2022-08-19T13:14:09;33.50;49.90
41290;DHT22;36117;46.680;11.154;2022-08-19T13:16:36;33.70;49.20
41290;DHT22;36117;46.680;11.154;2022-08-19T13:19:04;34.20;47.60
41290;DHT22;36117;46.680;11.154;2022-08-19T13:21:30;34.00;48.00
41290;DHT22;36117;46.680;11.154;2022-08-19T13:23:57;33.80;48.70
41290;DHT22;36117;46.680;11.154;2022-08-19T13:26:23;33.60;48.90
41290;DHT22;36117;46.680;11.154;2022-08-19T13:28:49;33.30;49.80
41290;DHT22;36117;46.680;11.154;2022-08-19T13:31:34;33.50;49.20
41290;DHT22;36117;46.680;11.154;2022-08-19T13:34:26;33.30;49.40
41290;DHT22;36117;46.680;11.154;2022-08-19T13:36:53;33.30;50.70
41290;DHT22;36117;46.680;11.154;2022-08-19T13:39:19;33.80;49.10
41290;DHT22;36117;46.680;11.154;2022-08-19T13:41:46;33.70;49.20
41290;DHT22;36117;46.680;11.154;2022-08-19T13:44:14;33.50;49.70
41290;DHT22;36117;46.680;11.154;2022-08-19T13:46:41;32.80;50.20
41290;DHT22;36117;46.680;11.154;2022-08-19T13:49:10;32.60;51.00
41290;DHT22;36117;46.680;11.154;2022-08-19T13:51:38;32.40;50.70
41290;DHT22;36117;46.680;11.154;2022-08-19T13:54:06;32.90;50.00
41290;DHT22;36117;46.680;11.154;2022-08-19T13:56:32;33.10;50.20
41290;DHT22;36117;46.680;11.154;2022-08-19T13:58:58;32.90;51.20
41290;DHT22;36117;46.680;11.154;2022-08-19T14:01:24;33.20;50.30
41290;DHT22;36117;46.680;11.154;2022-08-19T14:03:49;33.10;47.80
41290;DHT22;36117;46.680;11.154;2022-08-19T14:06:16;33.30;49.10
41290;DHT22;36117;46.680;11.154;2022-08-19T14:08:42;33.80;46.40
41290;DHT22;36117;46.680;11.154;2022-08-19T14:11:09;34.10;46.90
41290;DHT22;36117;46.680;11.154;2022-08-19T14:13:35;33.70;47.00
41290;DHT22;36117;46.680;11.154;2022-08-19T14:16:08;33.50;47.90
41290;DHT22;36117;46.680;11.154;2022-08-19T14:18:36;33.80;46.80
41290;DHT22;36117;46.680;11.154;2022-08-19T14:21:03;33.80;46.70
41290;DHT22;36117;46.680;11.154;2022-08-19T14:23:31;33.50;46.00
41290;DHT22;36117;46.680;11.154;2022-08-19T14:26:11;33.90;45.90
41290;DHT22;36117;46.680;11.154;2022-08-19T14:28:38;33.90;44.90
41290;DHT22;36117;46.680;11.154;2022-08-19T14:31:06;34.20;44.60
41290;DHT22;36117;46.680;11.154;2022-08-19T14:33:32;34.00;44.30
41290;DHT22;36117;46.680;11.154;2022-08-19T14:35:58;33.80;43.90
41290;DHT22;36117;46.680;11.154;2022-08-19T14:38:25;33.70;45.40
41290;DHT22;36117;46.680;11.154;2022-08-19T14:40:51;33.80;45.60
41290;DHT22;36117;46.680;11.154;2022-08-19T14:43:18;33.90;46.00
41290;DHT22;36117;46.680;11.154;2022-08-19T14:45:45;34.10;46.50
41290;DHT22;36117;46.680;11.154;2022-08-19T14:48:11;34.40;43.70
41290;DHT22;36117;46.680;11.154;2022-08-19T14:50:38;34.30;45.30
41290;DHT22;36117;46.680;11.154;2022-08-19T14:53:07;34.50;45.10
41290;DHT22;36117;46.680;11.154;2022-08-19T14:55:33;34.50;44.20
41290;DHT22;36117;46.680;11.154;2022-08-19T14:57:59;33.50;44.60
41290;DHT22;36117;46.680;11.154;2022-08-19T15:00:26;32.60;45.70
41290;DHT22;36117;46.680;11.154;2022-08-19T15:02:52;32.00;42.40
41290;DHT22;36117;46.680;11.154;2022-08-19T15:05:20;31.90;40.10
41290;DHT22;36117;46.680;11.154;2022-08-19T15:07:47;31.80;40.90
41290;DHT22;36117;46.680;11.154;2022-08-19T15:10:14;32.00;40.50
41290;DHT22;36117;46.680;11.154;2022-08-19T15:12:40;32.20;40.00
41290;DHT22;36117;46.680;11.154;2022-08-19T15:15:10;32.30;41.50
41290;DHT22;36117;46.680;11.154;2022-08-19T15:17:38;32.20;42.90
41290;DHT22;36117;46.680;11.154;2022-08-19T15:20:06;32.00;38.90
41290;DHT22;36117;46.680;11.154;2022-08-19T15:22:32;31.80;41.30
41290;DHT22;36117;46.680;11.154;2022-08-19T15:24:58;31.70;40.70
41290;DHT22;36117;46.680;11.154;2022-08-19T15:27:24;32.10;40.80